Time;durP1;ratioP1;P1;durP2;ratioP2;P2;SDS_P1;SDS_P2;PMS_P1;PMS_P2;Temp;Humidity;BMP_temperature;BMP_pressure;BME280_temperature;BME280_humidity;BME280_pressure;Samples;Min_cycle;Max_cycle;Signal;HPM_P1;HPM_P2
2020/12/14 00:00:21;;;;;;;;;;;19.80;92.60;;;;;;4941440;29;19911;-82
2020/12/14 00:02:47;;;;;;;;;;;19.80;92.40;;;;;;4927553;29;20009;-80
2020/12/14 00:05:14;;;;;;;;;;;19.80;92.40;;;;;;4932201;29;19931;-81
2020/12/14 00:07:41;;;;;;;;;;;19.90;92.70;;;;;;4948140;29;19939;-83
2020/12/14 00:10:08;;;;;;;;;;;20.00;92.50;;;;;;4938745;29;19921;-83
2020/12/14 00:12:38;;;;;;;;;;;20.20;92.70;;;;;;4929636;29;20433;-86
2020/12/14 00:15:09;;;;;;;;;;;20.20;91.50;;;;;;4931895;29;19956;-86
2020/12/14 00:17:36;;;;;;;;;;;20.30;91.60;;;;;;4930105;29;19911;-85
2020/12/14 00:20:03;;;;;;;;;;;20.30;90.70;;;;;;4940263;29;19907;-84
2020/12/14 00:22:31;;;;;;;;;;;20.40;91.20;;;;;;4923286;29;19922;-87
2020/12/14 00:24:57;;;;;;;;;;;20.50;90.30;;;;;;4931879;29;20005;-79
2020/12/14 00:27:24;;;;;;;;;;;20.60;88.30;;;;;;4921470;29;19907;-80
2020/12/14 00:29:51;;;;;;;;;;;20.60;86.30;;;;;;4930417;29;19934;-83
2020/12/14 00:32:18;;;;;;;;;;;20.60;85.40;;;;;;4920408;29;19938;-83
2020/12/14 00:34:45;;;;;;;;;;;20.70;84.70;;;;;;4935470;29;20005;-81
2020/12/14 00:37:11;;;;;;;;;;;20.90;85.70;;;;;;4938142;29;20006;-83
2020/12/14 00:39:38;;;;;;;;;;;21.10;83.40;;;;;;4937341;29;19911;-78
2020/12/14 00:42:06;;;;;;;;;;;21.30;83.90;;;;;;4925707;29;19922;-80
2020/12/14 00:44:32;;;;;;;;;;;21.50;78.90;;;;;;4918735;29;19911;-79
2020/12/14 00:47:02;;;;;;;;;;;21.60;77.30;;;;;;4918853;29;19911;-76
2020/12/14 00:49:29;;;;;;;;;;;21.80;76.00;;;;;;4919096;29;19995;-77
2020/12/14 00:51:57;;;;;;;;;;;21.80;77.00;;;;;;4930157;29;19957;-78
2020/12/14 00:54:24;;;;;;;;;;;21.90;77.90;;;;;;4923056;29;19918;-78
2020/12/14 00:56:52;;;;;;;;;;;21.90;77.50;;;;;;4918604;29;19907;-78
2020/12/14 00:59:19;;;;;;;;;;;22.10;74.10;;;;;;4906092;29;20381;-79
2020/12/14 01:01:51;;;;;;;;;;;22.20;75.50;;;;;;4918126;29;19933;-77
2020/12/14 01:04:18;;;;;;;;;;;22.20;74.00;;;;;;4902181;29;20349;-79
2020/12/14 01:06:44;;;;;;;;;;;22.20;72.20;;;;;;4921218;29;20053;-79
2020/12/14 01:09:11;;;;;;;;;;;22.20;72.70;;;;;;4921706;29;19915;-79
2020/12/14 01:11:39;;;;;;;;;;;22.20;72.10;;;;;;4921965;29;20007;-78
2020/12/14 01:14:08;;;;;;;;;;;22.20;73.80;;;;;;4922099;29;20397;-78
2020/12/14 01:16:35;;;;;;;;;;;22.10;73.60;;;;;;4899030;29;20301;-79
2020/12/14 01:19:03;;;;;;;;;;;22.00;74.60;;;;;;4929993;29;19909;-78
2020/12/14 01:21:30;;;;;;;;;;;22.00;74.00;;;;;;4933961;29;19914;-79
2020/12/14 01:23:58;;;;;;;;;;;21.90;75.00;;;;;;4918597;29;20002;-79
2020/12/14 01:26:25;;;;;;;;;;;21.90;75.50;;;;;;4912953;29;19915;-80
2020/12/14 01:28:52;;;;;;;;;;;21.90;75.40;;;;;;4915339;29;19919;-82
2020/12/14 01:31:19;;;;;;;;;;;21.80;75.80;;;;;;4899279;29;19915;-79
2020/12/14 01:33:45;;;;;;;;;;;22.00;76.50;;;;;;4919617;29;19911;-84
2020/12/14 01:36:12;;;;;;;;;;;22.10;78.00;;;;;;4925387;29;19918;-82
2020/12/14 01:38:41;;;;;;;;;;;22.30;76.60;;;;;;4918824;29;19911;-81
2020/12/14 01:41:08;;;;;;;;;;;22.30;75.00;;;;;;4920914;29;20013;-80
2020/12/14 01:43:39;;;;;;;;;;;22.30;75.70;;;;;;4923900;29;19911;-79
2020/12/14 01:46:10;;;;;;;;;;;22.40;75.80;;;;;;4918232;29;19956;-80
2020/12/14 01:48:37;;;;;;;;;;;22.30;76.80;;;;;;4928526;29;19949;-80
2020/12/14 01:51:04;;;;;;;;;;;22.20;77.40;;;;;;4926271;29;19907;-82
2020/12/14 01:53:31;;;;;;;;;;;22.20;77.70;;;;;;4916582;29;19907;-80
2020/12/14 01:56:03;;;;;;;;;;;22.20;75.80;;;;;;4916427;29;19907;-82
2020/12/14 01:58:33;;;;;;;;;;;22.20;77.20;;;;;;4913959;29;20022;-80
2020/12/14 02:01:02;;;;;;;;;;;22.20;78.00;;;;;;4921286;29;19930;-80
2020/12/14 02:03:29;;;;;;;;;;;22.30;77.60;;;;;;4928137;29;19914;-81
2020/12/14 02:05:56;;;;;;;;;;;22.30;77.00;;;;;;4917799;29;20277;-80
2020/12/14 02:08:24;;;;;;;;;;;22.50;76.50;;;;;;4921673;29;19992;-79
2020/12/14 02:10:50;;;;;;;;;;;22.60;77.60;;;;;;4918720;29;19918;-78
2020/12/14 02:13:20;;;;;;;;;;;22.60;79.10;;;;;;4900851;29;19907;-80
2020/12/14 02:15:47;;;;;;;;;;;22.50;81.70;;;;;;4918375;29;19987;-79
2020/12/14 02:18:16;;;;;;;;;;;22.50;82.70;;;;;;4905326;29;19934;-79
2020/12/14 02:20:46;;;;;;;;;;;22.40;82.50;;;;;;4899864;29;19942;-78
2020/12/14 02:23:13;;;;;;;;;;;22.40;82.00;;;;;;4916869;29;20346;-78
2020/12/14 02:25:43;;;;;;;;;;;22.30;81.80;;;;;;4926519;29;19949;-80
2020/12/14 02:28:13;;;;;;;;;;;22.20;81.20;;;;;;4925871;29;20008;-80
2020/12/14 02:30:40;;;;;;;;;;;22.30;79.60;;;;;;4899209;29;19999;-81
2020/12/14 02:33:06;;;;;;;;;;;22.30;80.30;;;;;;4905741;29;19966;-80
2020/12/14 02:35:33;;;;;;;;;;;22.50;80.70;;;;;;4916000;29;19915;-80
2020/12/14 02:38:00;;;;;;;;;;;22.60;81.10;;;;;;4926292;29;19919;-79
2020/12/14 02:40:27;;;;;;;;;;;22.70;80.00;;;;;;4916928;29;20005;-80
2020/12/14 02:42:54;;;;;;;;;;;22.80;78.80;;;;;;4916738;29;19923;-83
2020/12/14 02:45:23;;;;;;;;;;;23.00;79.30;;;;;;4917655;29;20009;-82
2020/12/14 02:47:54;;;;;;;;;;;23.10;78.50;;;;;;4933705;29;19907;-82
2020/12/14 02:50:21;;;;;;;;;;;23.20;78.30;;;;;;4935195;29;19914;-82
2020/12/14 02:52:47;;;;;;;;;;;23.20;77.60;;;;;;4915877;29;20212;-81
2020/12/14 02:55:14;;;;;;;;;;;23.10;79.00;;;;;;4918533;29;19910;-82
2020/12/14 02:57:41;;;;;;;;;;;23.10;82.10;;;;;;4935975;29;19917;-82
2020/12/14 03:00:08;;;;;;;;;;;22.80;80.70;;;;;;4925659;29;20389;-82
2020/12/14 03:02:35;;;;;;;;;;;22.50;82.40;;;;;;4907231;29;19974;-85
2020/12/14 03:05:02;;;;;;;;;;;22.40;83.50;;;;;;4918623;29;20377;-83
2020/12/14 03:07:30;;;;;;;;;;;22.20;86.90;;;;;;4917096;29;19907;-84
2020/12/14 03:09:56;;;;;;;;;;;22.00;87.80;;;;;;4920738;29;20351;-83
2020/12/14 03:12:23;;;;;;;;;;;21.90;85.30;;;;;;4926495;29;20402;-85
2020/12/14 03:14:52;;;;;;;;;;;21.80;84.30;;;;;;4923384;29;19911;-84
2020/12/14 03:17:19;;;;;;;;;;;21.60;82.20;;;;;;4919363;29;19926;-83
2020/12/14 03:19:48;;;;;;;;;;;21.60;85.20;;;;;;4920287;29;19911;-80
2020/12/14 03:22:15;;;;;;;;;;;21.70;85.00;;;;;;4918153;29;19966;-84
2020/12/14 03:24:42;;;;;;;;;;;21.80;84.50;;;;;;4929427;29;19911;-82
2020/12/14 03:27:08;;;;;;;;;;;21.90;85.10;;;;;;4924919;29;19911;-85
2020/12/14 03:29:35;;;;;;;;;;;22.00;84.30;;;;;;4934941;29;19911;-80
2020/12/14 03:32:02;;;;;;;;;;;22.00;83.70;;;;;;4927795;29;19911;-83
2020/12/14 03:34:29;;;;;;;;;;;22.00;84.20;;;;;;4937712;29;19920;-82
2020/12/14 03:36:57;;;;;;;;;;;22.00;85.00;;;;;;4935518;29;20002;-82
2020/12/14 03:39:27;;;;;;;;;;;22.10;84.90;;;;;;4931854;29;20321;-82
2020/12/14 03:41:56;;;;;;;;;;;22.20;84.90;;;;;;4922409;29;19919;-82
2020/12/14 03:44:23;;;;;;;;;;;22.40;85.20;;;;;;4923518;29;19910;-84
2020/12/14 03:46:50;;;;;;;;;;;22.50;84.30;;;;;;4930154;29;19918;-81
2020/12/14 03:49:17;;;;;;;;;;;22.60;83.40;;;;;;4935624;29;20013;-84
2020/12/14 03:51:45;;;;;;;;;;;22.60;83.10;;;;;;4920506;29;19925;-80
2020/12/14 03:54:12;;;;;;;;;;;22.60;83.70;;;;;;4932061;29;19999;-84
2020/12/14 03:56:38;;;;;;;;;;;22.70;82.60;;;;;;4928569;29;19986;-82
2020/12/14 03:59:05;;;;;;;;;;;22.80;82.70;;;;;;4930295;29;20317;-82
2020/12/14 04:01:32;;;;;;;;;;;22.80;81.70;;;;;;4910610;29;20262;-85
2020/12/14 04:04:01;;;;;;;;;;;22.90;81.70;;;;;;4914179;29;19907;-83
2020/12/14 04:06:28;;;;;;;;;;;22.80;81.40;;;;;;4898355;29;20404;-81
2020/12/14 04:08:55;;;;;;;;;;;22.80;81.60;;;;;;4920962;29;19915;-85
2020/12/14 04:11:24;;;;;;;;;;;22.80;81.20;;;;;;4925134;29;19911;-84
2020/12/14 04:13:51;;;;;;;;;;;22.60;81.30;;;;;;4919536;29;19911;-82
2020/12/14 04:16:21;;;;;;;;;;;22.60;82.40;;;;;;4923002;29;19968;-87
2020/12/14 04:18:49;;;;;;;;;;;22.50;82.90;;;;;;4938088;29;20385;-83
2020/12/14 04:21:17;;;;;;;;;;;22.20;87.70;;;;;;4924863;29;19922;-83
2020/12/14 04:23:44;;;;;;;;;;;21.70;90.60;;;;;;4920251;29;20006;-83
2020/12/14 04:26:13;;;;;;;;;;;21.50;91.20;;;;;;4923083;29;19910;-85
2020/12/14 04:28:40;;;;;;;;;;;21.50;91.80;;;;;;4938288;29;20024;-84
2020/12/14 04:31:08;;;;;;;;;;;21.40;91.00;;;;;;4935710;29;19950;-84
2020/12/14 04:33:35;;;;;;;;;;;21.30;90.60;;;;;;4929660;29;19914;-84
2020/12/14 04:36:01;;;;;;;;;;;21.30;90.50;;;;;;4919698;29;19914;-87
2020/12/14 04:38:28;;;;;;;;;;;21.40;90.30;;;;;;4937564;29;20298;-87
2020/12/14 04:41:01;;;;;;;;;;;21.50;90.20;;;;;;4920072;29;19930;-88
2020/12/14 04:43:28;;;;;;;;;;;21.60;88.70;;;;;;4927636;29;19911;-86
2020/12/14 04:45:55;;;;;;;;;;;21.70;88.30;;;;;;4919433;29;20002;-88
2020/12/14 04:48:30;;;;;;;;;;;21.70;87.00;;;;;;4916321;29;19907;-85
2020/12/14 04:50:57;;;;;;;;;;;21.80;86.40;;;;;;4926997;29;19995;-84
2020/12/14 04:53:27;;;;;;;;;;;21.90;86.40;;;;;;4924682;29;20026;-84
2020/12/14 04:55:54;;;;;;;;;;;22.00;85.50;;;;;;4922017;29;19911;-82
2020/12/14 04:58:23;;;;;;;;;;;22.10;84.90;;;;;;4921751;29;19922;-88
2020/12/14 05:00:49;;;;;;;;;;;22.10;86.00;;;;;;4924864;29;19989;-86
2020/12/14 05:03:19;;;;;;;;;;;22.00;85.20;;;;;;4919930;29;19951;-86
2020/12/14 05:05:55;;;;;;;;;;;22.00;86.10;;;;;;4925052;29;20302;-85
2020/12/14 05:08:31;;;;;;;;;;;21.80;86.00;;;;;;4923006;29;19915;-86
2020/12/14 05:10:58;;;;;;;;;;;21.80;87.10;;;;;;4927066;29;19914;-87
2020/12/14 05:13:26;;;;;;;;;;;21.90;86.40;;;;;;4924310;29;19918;-86
2020/12/14 05:16:00;;;;;;;;;;;21.90;86.40;;;;;;4923689;29;19907;-86
2020/12/14 05:18:26;;;;;;;;;;;22.00;85.20;;;;;;4919743;29;20365;-88
2020/12/14 05:21:05;;;;;;;;;;;22.10;84.80;;;;;;4920553;29;20317;-85
2020/12/14 05:23:33;;;;;;;;;;;22.10;85.00;;;;;;4930855;29;20004;-84
2020/12/14 05:26:14;;;;;;;;;;;22.20;85.10;;;;;;4916049;29;19946;-84
2020/12/14 05:28:40;;;;;;;;;;;22.30;84.30;;;;;;4916303;29;19919;-82
2020/12/14 05:31:17;;;;;;;;;;;22.20;82.70;;;;;;4922180;29;20354;-83
2020/12/14 05:33:45;;;;;;;;;;;22.20;83.30;;;;;;4924176;29;20301;-83
2020/12/14 05:36:18;;;;;;;;;;;22.30;82.90;;;;;;4918206;29;19914;-84
2020/12/14 05:38:45;;;;;;;;;;;22.30;82.10;;;;;;4919241;29;19977;-81
2020/12/14 05:41:20;;;;;;;;;;;22.40;82.60;;;;;;4917068;29;19923;-82
2020/12/14 05:43:57;;;;;;;;;;;22.50;82.00;;;;;;4918677;29;20055;-87
2020/12/14 05:46:23;;;;;;;;;;;22.50;80.60;;;;;;4915871;29;20009;-85
2020/12/14 05:48:51;;;;;;;;;;;22.50;81.60;;;;;;4915275;29;20488;-83
2020/12/14 05:51:25;;;;;;;;;;;22.50;79.90;;;;;;4894912;29;19919;-79
2020/12/14 05:53:55;;;;;;;;;;;22.50;80.20;;;;;;4916589;29;19918;-83
2020/12/14 05:56:25;;;;;;;;;;;22.50;79.90;;;;;;4914491;29;20006;-87
2020/12/14 05:59:03;;;;;;;;;;;22.50;79.00;;;;;;4915622;29;19938;-88
2020/12/14 06:01:39;;;;;;;;;;;22.50;79.10;;;;;;4913199;29;19926;-87
2020/12/14 06:04:06;;;;;;;;;;;22.60;78.50;;;;;;4913583;29;19982;-85
2020/12/14 06:06:36;;;;;;;;;;;22.60;79.50;;;;;;4914745;29;19915;-84
2020/12/14 06:09:05;;;;;;;;;;;22.70;79.10;;;;;;4917451;29;19907;-82
2020/12/14 06:11:41;;;;;;;;;;;22.70;78.50;;;;;;4927893;29;19942;-82
2020/12/14 06:14:09;;;;;;;;;;;22.60;77.90;;;;;;4918243;29;20237;-88
2020/12/14 06:16:39;;;;;;;;;;;22.60;78.60;;;;;;4913435;29;19907;-84
2020/12/14 06:19:06;;;;;;;;;;;22.60;78.10;;;;;;4914049;29;20022;-87
2020/12/14 06:21:36;;;;;;;;;;;22.60;78.80;;;;;;4913498;29;20009;-81
2020/12/14 06:24:05;;;;;;;;;;;22.60;77.70;;;;;;4912128;29;19949;-87
2020/12/14 06:26:36;;;;;;;;;;;22.60;78.00;;;;;;4910746;29;19922;-83
2020/12/14 06:29:05;;;;;;;;;;;22.60;78.50;;;;;;4912960;29;20203;-81
2020/12/14 06:31:39;;;;;;;;;;;22.70;78.70;;;;;;4915873;29;20017;-81
2020/12/14 06:34:25;;;;;;;;;;;22.70;78.60;;;;;;4915290;29;20026;-84
2020/12/14 06:36:52;;;;;;;;;;;22.70;78.90;;;;;;4891096;29;19934;-80
2020/12/14 06:39:52;;;;;;;;;;;22.80;78.30;;;;;;4908453;29;19930;-83
2020/12/14 06:42:20;;;;;;;;;;;22.80;79.50;;;;;;4874085;29;19926;-83
2020/12/14 06:44:47;;;;;;;;;;;22.50;88.60;;;;;;4918836;29;19939;-84
2020/12/14 06:47:14;;;;;;;;;;;21.70;92.00;;;;;;4915975;29;19921;-85
2020/12/14 06:49:42;;;;;;;;;;;21.40;92.80;;;;;;4914711;29;19970;-83
2020/12/14 06:52:09;;;;;;;;;;;21.20;93.70;;;;;;4920992;29;19934;-83
2020/12/14 06:54:39;;;;;;;;;;;21.00;93.50;;;;;;4918132;29;19907;-84
2020/12/14 06:57:07;;;;;;;;;;;20.90;94.10;;;;;;4925129;29;20417;-85
2020/12/14 06:59:38;;;;;;;;;;;20.70;93.20;;;;;;4921888;29;19938;-83
2020/12/14 07:02:09;;;;;;;;;;;20.70;93.90;;;;;;4912065;29;19910;-86
2020/12/14 07:04:39;;;;;;;;;;;20.60;92.60;;;;;;4933190;29;19907;-88
2020/12/14 07:07:06;;;;;;;;;;;20.60;92.70;;;;;;4923546;29;19913;-86
2020/12/14 07:09:37;;;;;;;;;;;20.60;92.80;;;;;;4917580;29;19946;-85
2020/12/14 07:12:09;;;;;;;;;;;20.70;93.10;;;;;;4913728;29;19907;-86
2020/12/14 07:14:36;;;;;;;;;;;20.70;92.20;;;;;;4914697;29;19915;-85
2020/12/14 07:17:09;;;;;;;;;;;20.70;91.90;;;;;;4912295;29;20370;-84
2020/12/14 07:19:39;;;;;;;;;;;20.80;92.10;;;;;;4911649;29;19926;-85
2020/12/14 07:22:06;;;;;;;;;;;20.90;92.20;;;;;;4913345;29;20029;-85
2020/12/14 07:24:36;;;;;;;;;;;21.00;90.40;;;;;;4909510;29;19908;-86
2020/12/14 07:27:12;;;;;;;;;;;21.00;90.40;;;;;;4912401;29;19907;-85
2020/12/14 07:29:40;;;;;;;;;;;21.00;90.60;;;;;;4902948;29;20460;-86
2020/12/14 07:32:09;;;;;;;;;;;21.10;91.00;;;;;;4913399;29;20374;-86
2020/12/14 07:34:39;;;;;;;;;;;21.20;90.20;;;;;;4896703;29;20846;-86
2020/12/14 07:37:19;;;;;;;;;;;21.10;90.00;;;;;;4909157;29;20013;-85
2020/12/14 07:39:49;;;;;;;;;;;21.10;88.00;;;;;;4914373;29;19915;-86
2020/12/14 07:42:31;;;;;;;;;;;21.10;90.00;;;;;;4896618;29;19922;-86
2020/12/14 07:47:59;;;;;;;;;;;21.10;89.80;;;;;;4901174;29;19919;-86
2020/12/14 07:50:29;;;;;;;;;;;21.10;88.90;;;;;;4913168;29;20464;-85
2020/12/14 07:53:03;;;;;;;;;;;21.10;89.70;;;;;;4912040;29;20219;-86
2020/12/14 07:55:31;;;;;;;;;;;21.20;88.80;;;;;;4913238;29;20027;-84
2020/12/14 07:57:59;;;;;;;;;;;21.20;87.50;;;;;;4891552;29;19968;-86
2020/12/14 08:00:26;;;;;;;;;;;21.10;88.70;;;;;;4897771;29;20365;-86
2020/12/14 08:03:06;;;;;;;;;;;21.20;88.00;;;;;;4912827;29;19935;-85
2020/12/14 08:05:33;;;;;;;;;;;21.10;88.60;;;;;;4915070;29;19907;-84
2020/12/14 08:08:04;;;;;;;;;;;21.10;89.30;;;;;;4893925;29;20326;-84
2020/12/14 08:10:32;;;;;;;;;;;21.10;89.30;;;;;;4915918;29;19914;-85
2020/12/14 08:12:59;;;;;;;;;;;21.10;88.90;;;;;;4933967;29;19911;-86
2020/12/14 08:15:30;;;;;;;;;;;21.10;88.70;;;;;;4934186;29;19899;-85
2020/12/14 08:18:01;;;;;;;;;;;21.10;88.50;;;;;;4927944;29;19922;-88
2020/12/14 08:20:30;;;;;;;;;;;21.10;87.90;;;;;;4919105;29;19910;-87
2020/12/14 08:23:00;;;;;;;;;;;21.10;88.60;;;;;;4921433;29;19942;-86
2020/12/14 08:25:30;;;;;;;;;;;21.10;88.50;;;;;;4921801;29;19958;-84
2020/12/14 08:28:01;;;;;;;;;;;21.10;89.10;;;;;;4917610;29;19907;-84
2020/12/14 08:30:28;;;;;;;;;;;21.00;89.20;;;;;;4915430;29;19911;-86
2020/12/14 08:33:14;;;;;;;;;;;21.00;89.30;;;;;;4915752;29;20342;-85
2020/12/14 08:35:46;;;;;;;;;;;21.10;88.70;;;;;;4919736;29;19956;-87
2020/12/14 08:38:15;;;;;;;;;;;21.10;88.90;;;;;;4918876;29;19958;-88
2020/12/14 08:40:52;;;;;;;;;;;21.10;88.80;;;;;;4902069;29;20311;-86
2020/12/14 08:43:19;;;;;;;;;;;21.10;88.90;;;;;;4919266;29;19926;-83
2020/12/14 08:46:03;;;;;;;;;;;21.10;89.00;;;;;;4919510;29;19907;-86
2020/12/14 08:48:31;;;;;;;;;;;21.10;89.40;;;;;;4902386;29;19954;-81
2020/12/14 08:51:17;;;;;;;;;;;21.10;89.40;;;;;;4919479;29;19969;-90
2020/12/14 08:53:45;;;;;;;;;;;21.20;89.20;;;;;;4909159;29;20442;-85
2020/12/14 08:56:19;;;;;;;;;;;21.20;88.60;;;;;;4901385;29;19950;-83
2020/12/14 08:58:48;;;;;;;;;;;21.10;88.90;;;;;;4905631;29;19994;-85
2020/12/14 09:01:19;;;;;;;;;;;21.20;89.60;;;;;;4915102;29;19942;-86
2020/12/14 09:03:52;;;;;;;;;;;21.20;88.40;;;;;;4900298;29;19915;-82
2020/12/14 09:06:32;;;;;;;;;;;21.20;89.40;;;;;;4919120;29;20332;-84
2020/12/14 09:09:06;;;;;;;;;;;20.90;90.90;;;;;;4916740;29;20022;-81
2020/12/14 09:11:36;;;;;;;;;;;20.50;91.70;;;;;;4927062;29;20417;-84
2020/12/14 09:14:03;;;;;;;;;;;20.30;92.40;;;;;;4918881;29;19911;-88
2020/12/14 09:16:30;;;;;;;;;;;20.30;92.60;;;;;;4913442;29;19911;-84
2020/12/14 09:18:57;;;;;;;;;;;20.20;93.00;;;;;;4910366;29;20364;-82
2020/12/14 09:21:24;;;;;;;;;;;20.20;92.60;;;;;;4924640;29;19942;-85
2020/12/14 09:24:09;;;;;;;;;;;20.20;92.50;;;;;;4922688;29;19907;-82
2020/12/14 09:26:39;;;;;;;;;;;20.30;92.40;;;;;;4921326;29;19979;-81
2020/12/14 09:29:06;;;;;;;;;;;20.30;92.40;;;;;;4918474;29;20263;-83
2020/12/14 09:31:33;;;;;;;;;;;20.30;92.20;;;;;;4919164;29;19907;-84
2020/12/14 09:34:00;;;;;;;;;;;20.30;91.80;;;;;;4920265;29;19959;-85
2020/12/14 09:36:28;;;;;;;;;;;20.40;91.90;;;;;;4925862;29;19954;-82
2020/12/14 09:38:57;;;;;;;;;;;20.40;92.80;;;;;;4919985;29;19959;-84
2020/12/14 09:41:29;;;;;;;;;;;20.40;92.50;;;;;;4919461;29;20009;-82
2020/12/14 09:43:55;;;;;;;;;;;20.30;92.60;;;;;;4932366;29;20276;-83
2020/12/14 09:46:42;;;;;;;;;;;20.30;92.70;;;;;;4920715;29;19957;-83
2020/12/14 09:49:14;;;;;;;;;;;20.10;92.70;;;;;;4903540;29;19962;-84
2020/12/14 09:51:42;;;;;;;;;;;20.10;93.00;;;;;;4917860;29;19911;-86
2020/12/14 09:54:11;;;;;;;;;;;20.10;93.00;;;;;;4920288;29;20006;-88
2020/12/14 09:56:39;;;;;;;;;;;20.00;93.30;;;;;;4921574;29;19917;-84
2020/12/14 09:59:06;;;;;;;;;;;20.00;93.50;;;;;;4921267;29;19907;-84
2020/12/14 10:01:32;;;;;;;;;;;20.00;93.60;;;;;;4921566;29;19927;-83
2020/12/14 10:03:59;;;;;;;;;;;20.10;93.40;;;;;;4921281;29;20013;-81
2020/12/14 10:06:27;;;;;;;;;;;20.10;93.60;;;;;;4924500;29;19911;-83
2020/12/14 10:08:53;;;;;;;;;;;20.20;93.70;;;;;;4930452;29;19939;-85
2020/12/14 10:11:30;;;;;;;;;;;20.30;93.80;;;;;;4937873;29;19934;-85
2020/12/14 10:14:00;;;;;;;;;;;20.30;93.10;;;;;;4933400;29;19911;-86
2020/12/14 10:16:27;;;;;;;;;;;20.20;93.00;;;;;;4928123;29;19914;-84
2020/12/14 10:19:00;;;;;;;;;;;20.20;92.60;;;;;;4930090;29;19945;-86
2020/12/14 10:21:27;;;;;;;;;;;20.30;92.80;;;;;;4933122;29;19922;-84
2020/12/14 10:23:53;;;;;;;;;;;20.30;92.50;;;;;;4933743;29;19974;-82
2020/12/14 10:26:21;;;;;;;;;;;20.30;92.80;;;;;;4933819;29;19931;-80
2020/12/14 10:28:48;;;;;;;;;;;20.30;92.60;;;;;;4931039;29;19911;-81
2020/12/14 10:31:14;;;;;;;;;;;20.40;92.40;;;;;;4922130;29;19978;-83
2020/12/14 10:33:47;;;;;;;;;;;20.40;92.50;;;;;;4922234;29;19907;-84
2020/12/14 10:36:18;;;;;;;;;;;20.40;92.50;;;;;;4917096;29;20337;-86
2020/12/14 10:38:46;;;;;;;;;;;20.40;92.30;;;;;;4917198;29;19908;-87
2020/12/14 10:41:13;;;;;;;;;;;20.40;92.50;;;;;;4921644;29;19915;-87
2020/12/14 10:43:40;;;;;;;;;;;20.50;92.70;;;;;;4917906;29;19993;-84
2020/12/14 10:46:07;;;;;;;;;;;20.50;92.70;;;;;;4915113;29;20358;-83
2020/12/14 10:48:33;;;;;;;;;;;20.50;92.70;;;;;;4908941;29;19918;-87
2020/12/14 10:51:00;;;;;;;;;;;20.50;92.70;;;;;;4899111;29;19919;-84
2020/12/14 10:53:27;;;;;;;;;;;20.60;92.80;;;;;;4915866;29;19962;-83
2020/12/14 10:55:54;;;;;;;;;;;20.60;92.90;;;;;;4905323;29;20345;-81
2020/12/14 10:58:21;;;;;;;;;;;20.60;93.00;;;;;;4922599;29;20358;-85
2020/12/14 11:00:48;;;;;;;;;;;20.60;92.90;;;;;;4917672;29;20325;-86
2020/12/14 11:03:15;;;;;;;;;;;20.60;92.80;;;;;;4908791;29;19941;-83
2020/12/14 11:05:44;;;;;;;;;;;20.60;92.70;;;;;;4914126;29;20319;-85
2020/12/14 11:08:10;;;;;;;;;;;20.60;92.90;;;;;;4916069;29;19922;-85
2020/12/14 11:10:37;;;;;;;;;;;20.60;92.90;;;;;;4914767;29;19917;-81
2020/12/14 11:13:04;;;;;;;;;;;20.60;92.90;;;;;;4909533;29;19937;-86
2020/12/14 11:15:33;;;;;;;;;;;20.60;92.90;;;;;;4914789;29;19919;-84
2020/12/14 11:18:00;;;;;;;;;;;20.60;93.00;;;;;;4916529;29;20410;-83
2020/12/14 11:20:27;;;;;;;;;;;20.60;93.00;;;;;;4916985;29;19917;-83
2020/12/14 11:22:53;;;;;;;;;;;20.70;93.00;;;;;;4917540;29;19915;-80
2020/12/14 11:25:20;;;;;;;;;;;20.70;93.00;;;;;;4916221;29;20276;-81
2020/12/14 11:27:48;;;;;;;;;;;20.70;93.10;;;;;;4915144;29;19911;-83
2020/12/14 11:30:17;;;;;;;;;;;20.70;93.10;;;;;;4915200;29;19911;-86
2020/12/14 11:32:46;;;;;;;;;;;20.70;93.20;;;;;;4914028;29;19906;-80
2020/12/14 11:35:17;;;;;;;;;;;20.70;93.10;;;;;;4919126;29;19930;-82
2020/12/14 11:37:45;;;;;;;;;;;20.70;93.20;;;;;;4935092;29;19907;-80
2020/12/14 11:40:12;;;;;;;;;;;20.70;93.20;;;;;;4926814;29;19915;-84
2020/12/14 11:42:39;;;;;;;;;;;20.70;93.20;;;;;;4917670;29;20285;-80
2020/12/14 11:45:10;;;;;;;;;;;20.70;93.30;;;;;;4927900;29;19910;-82
2020/12/14 11:47:37;;;;;;;;;;;20.70;93.10;;;;;;4923252;29;19911;-87
2020/12/14 11:50:04;;;;;;;;;;;20.70;93.10;;;;;;4922586;29;19918;-80
2020/12/14 11:52:31;;;;;;;;;;;20.70;93.10;;;;;;4916904;29;20429;-82
2020/12/14 11:54:58;;;;;;;;;;;20.70;93.20;;;;;;4925441;29;19966;-83
2020/12/14 11:57:25;;;;;;;;;;;20.70;93.20;;;;;;4919363;29;19907;-80
2020/12/14 11:59:52;;;;;;;;;;;20.70;93.20;;;;;;4922069;29;20005;-87
2020/12/14 12:02:18;;;;;;;;;;;20.80;93.40;;;;;;4940901;29;19918;-85
2020/12/14 12:04:46;;;;;;;;;;;20.80;93.10;;;;;;4937805;29;19907;-82
2020/12/14 12:07:16;;;;;;;;;;;20.90;92.90;;;;;;4921561;29;20001;-84
2020/12/14 12:09:48;;;;;;;;;;;20.90;92.90;;;;;;4920876;29;19911;-83
2020/12/14 12:12:14;;;;;;;;;;;20.90;92.90;;;;;;4921727;29;20002;-81
2020/12/14 12:14:44;;;;;;;;;;;20.90;93.80;;;;;;4923979;29;20380;-86
2020/12/14 12:17:11;;;;;;;;;;;20.80;94.30;;;;;;4925545;29;19911;-82
2020/12/14 12:19:42;;;;;;;;;;;20.70;95.10;;;;;;4925728;29;19958;-84
2020/12/14 12:22:10;;;;;;;;;;;20.60;95.30;;;;;;4930252;29;20385;-84
2020/12/14 12:24:37;;;;;;;;;;;20.40;95.50;;;;;;4924292;29;19907;-82
2020/12/14 12:27:03;;;;;;;;;;;20.30;95.70;;;;;;4925456;29;19917;-82
2020/12/14 12:29:30;;;;;;;;;;;20.20;96.00;;;;;;4929270;29;20437;-84
2020/12/14 12:32:01;;;;;;;;;;;20.00;96.20;;;;;;4921133;29;19919;-85
2020/12/14 12:34:27;;;;;;;;;;;19.90;96.40;;;;;;4921971;29;20009;-83
2020/12/14 12:36:55;;;;;;;;;;;19.80;96.60;;;;;;4931221;29;19974;-83
2020/12/14 12:39:22;;;;;;;;;;;19.70;96.60;;;;;;4929470;29;19954;-85
2020/12/14 12:41:50;;;;;;;;;;;19.60;97.00;;;;;;4921748;29;19915;-85
2020/12/14 12:44:17;;;;;;;;;;;19.60;97.30;;;;;;4920116;29;19914;-84
2020/12/14 12:46:46;;;;;;;;;;;19.60;97.30;;;;;;4923481;29;19915;-83
2020/12/14 12:49:13;;;;;;;;;;;19.60;97.40;;;;;;4923502;29;19965;-85
2020/12/14 12:51:44;;;;;;;;;;;19.60;97.50;;;;;;4925261;29;19907;-83
2020/12/14 12:54:11;;;;;;;;;;;19.70;97.80;;;;;;4921965;29;19918;-84
2020/12/14 12:56:37;;;;;;;;;;;19.70;97.60;;;;;;4920020;29;19918;-84
2020/12/14 12:59:05;;;;;;;;;;;19.60;97.60;;;;;;4932736;29;20001;-83
2020/12/14 13:01:32;;;;;;;;;;;19.70;97.60;;;;;;4936648;29;19978;-85
2020/12/14 13:04:00;;;;;;;;;;;19.60;97.50;;;;;;4938976;29;19910;-84
2020/12/14 13:06:31;;;;;;;;;;;19.60;97.50;;;;;;4936791;29;19910;-84
2020/12/14 13:08:58;;;;;;;;;;;19.50;97.70;;;;;;4926679;29;19975;-82
2020/12/14 13:11:25;;;;;;;;;;;19.60;97.70;;;;;;4919481;29;19942;-83
2020/12/14 13:13:52;;;;;;;;;;;19.60;97.80;;;;;;4919350;29;20253;-83
2020/12/14 13:16:22;;;;;;;;;;;19.40;97.20;;;;;;4933470;29;20379;-81
2020/12/14 13:18:49;;;;;;;;;;;19.20;97.50;;;;;;4931310;29;20448;-80
2020/12/14 13:21:16;;;;;;;;;;;19.10;97.60;;;;;;4928956;29;19914;-83
2020/12/14 13:23:43;;;;;;;;;;;18.90;97.30;;;;;;4929713;29;19915;-84
2020/12/14 13:26:09;;;;;;;;;;;18.90;97.60;;;;;;4923334;29;19907;-84
2020/12/14 13:28:36;;;;;;;;;;;18.90;97.60;;;;;;4918865;29;19911;-83
2020/12/14 13:31:02;;;;;;;;;;;18.90;97.70;;;;;;4925598;29;19906;-83
2020/12/14 13:33:32;;;;;;;;;;;18.90;97.60;;;;;;4937918;29;19910;-84
2020/12/14 13:35:58;;;;;;;;;;;19.00;97.80;;;;;;4938041;29;19910;-83
2020/12/14 13:38:25;;;;;;;;;;;19.00;97.70;;;;;;4931128;29;19962;-84
2020/12/14 13:40:53;;;;;;;;;;;19.10;98.00;;;;;;4919553;29;19918;-83
2020/12/14 13:43:21;;;;;;;;;;;19.00;97.60;;;;;;4921228;29;19961;-84
2020/12/14 13:45:50;;;;;;;;;;;19.10;97.50;;;;;;4922383;29;19939;-83
2020/12/14 13:48:18;;;;;;;;;;;19.00;97.50;;;;;;4923377;29;19907;-84
2020/12/14 13:50:45;;;;;;;;;;;19.10;97.70;;;;;;4940327;29;19910;-83
2020/12/14 13:53:14;;;;;;;;;;;19.20;97.90;;;;;;4923576;29;19914;-83
2020/12/14 13:55:58;;;;;;;;;;;19.20;97.90;;;;;;4939961;29;19910;-85
2020/12/14 13:58:25;;;;;;;;;;;19.20;97.90;;;;;;4896779;29;20411;-81
2020/12/14 14:00:55;;;;;;;;;;;19.10;97.30;;;;;;4940110;29;19938;-81
2020/12/14 14:03:22;;;;;;;;;;;19.00;97.20;;;;;;4941190;29;19919;-81
2020/12/14 14:05:48;;;;;;;;;;;19.00;97.00;;;;;;4927691;29;20318;-84
2020/12/14 14:08:15;;;;;;;;;;;19.10;96.70;;;;;;4922576;29;19933;-83
2020/12/14 14:10:42;;;;;;;;;;;19.00;97.00;;;;;;4929215;29;19915;-84
2020/12/14 14:13:08;;;;;;;;;;;19.00;97.40;;;;;;4929745;29;19911;-84
2020/12/14 14:15:38;;;;;;;;;;;19.00;97.30;;;;;;4937164;29;19910;-85
2020/12/14 14:18:08;;;;;;;;;;;19.00;97.20;;;;;;4933371;29;19959;-85
2020/12/14 14:20:37;;;;;;;;;;;19.00;97.30;;;;;;4920292;29;19961;-81
2020/12/14 14:23:04;;;;;;;;;;;19.00;97.60;;;;;;4919196;29;19923;-83
2020/12/14 14:25:31;;;;;;;;;;;19.00;97.60;;;;;;4928159;29;19907;-83
2020/12/14 14:27:57;;;;;;;;;;;19.10;97.60;;;;;;4917960;29;19987;-84